sensor_id;sensor_type;location;lat;lon;timestamp;P1;durP1;ratioP1;P2;durP2;ratioP2
74177;SDS011;62540;48.456;-4.456;2023-05-10T00:02:22;2.00;;;2.00;;
74177;SDS011;62540;48.456;-4.456;2023-05-10T00:04:48;5.75;;;3.00;;
74177;SDS011;62540;48.456;-4.456;2023-05-10T00:07:13;3.00;;;2.75;;
74177;SDS011;62540;48.456;-4.456;2023-05-10T00:09:39;5.25;;;2.50;;
74177;SDS011;62540;48.456;-4.456;2023-05-10T00:12:05;3.75;;;2.00;;
74177;SDS011;62540;48.456;-4.456;2023-05-10T00:14:30;4.00;;;2.50;;
74177;SDS011;62540;48.456;-4.456;2023-05-10T00:16:56;7.00;;;3.00;;
74177;SDS011;62540;48.456;-4.456;2023-05-10T00:19:21;5.75;;;3.00;;
74177;SDS011;62540;48.456;-4.456;2023-05-10T00:21:47;4.50;;;3.00;;
74177;SDS011;62540;48.456;-4.456;2023-05-10T00:24:12;3.00;;;2.00;;
74177;SDS011;62540;48.456;-4.456;2023-05-10T00:26:38;4.25;;;2.00;;
74177;SDS011;62540;48.456;-4.456;2023-05-10T00:29:03;2.50;;;1.25;;
74177;SDS011;62540;48.456;-4.456;2023-05-10T00:31:28;3.00;;;2.50;;
74177;SDS011;62540;48.456;-4.456;2023-05-10T00:33:54;3.50;;;3.00;;
74177;SDS011;62540;48.456;-4.456;2023-05-10T00:36:19;3.25;;;1.00;;
74177;SDS011;62540;48.456;-4.456;2023-05-10T00:38:45;2.50;;;1.50;;
74177;SDS011;62540;48.456;-4.456;2023-05-10T00:41:11;2.75;;;2.00;;
74177;SDS011;62540;48.456;-4.456;2023-05-10T00:43:36;2.00;;;1.00;;
74177;SDS011;62540;48.456;-4.456;2023-05-10T00:46:01;6.00;;;2.00;;
74177;SDS011;62540;48.456;-4.456;2023-05-10T00:48:28;2.00;;;1.00;;
74177;SDS011;62540;48.456;-4.456;2023-05-10T00:50:54;3.00;;;2.00;;
74177;SDS011;62540;48.456;-4.456;2023-05-10T00:53:19;3.50;;;2.75;;
74177;SDS011;62540;48.456;-4.456;2023-05-10T00:55:44;3.00;;;1.25;;
74177;SDS011;62540;48.456;-4.456;2023-05-10T00:58:10;6.75;;;3.00;;
74177;SDS011;62540;48.456;-4.456;2023-05-10T01:00:37;2.00;;;1.25;;
74177;SDS011;62540;48.456;-4.456;2023-05-10T01:03:06;3.00;;;2.25;;
74177;SDS011;62540;48.456;-4.456;2023-05-10T01:05:31;3.50;;;2.00;;
74177;SDS011;62540;48.456;-4.456;2023-05-10T01:07:57;8.75;;;3.00;;
74177;SDS011;62540;48.456;-4.456;2023-05-10T01:10:22;5.50;;;2.25;;
74177;SDS011;62540;48.456;-4.456;2023-05-10T01:12:48;5.00;;;1.00;;
74177;SDS011;62540;48.456;-4.456;2023-05-10T01:15:13;5.50;;;2.25;;
74177;SDS011;62540;48.456;-4.456;2023-05-10T01:17:42;5.25;;;2.50;;
74177;SDS011;62540;48.456;-4.456;2023-05-10T01:20:09;4.75;;;3.50;;
74177;SDS011;62540;48.456;-4.456;2023-05-10T01:22:42;3.00;;;1.50;;
74177;SDS011;62540;48.456;-4.456;2023-05-10T01:36:31;3.25;;;1.75;;
74177;SDS011;62540;48.456;-4.456;2023-05-10T01:39:09;3.75;;;2.00;;
74177;SDS011;62540;48.456;-4.456;2023-05-10T01:41:51;5.25;;;3.00;;
74177;SDS011;62540;48.456;-4.456;2023-05-10T01:44:31;3.00;;;2.00;;
74177;SDS011;62540;48.456;-4.456;2023-05-10T01:47:12;5.00;;;2.00;;
74177;SDS011;62540;48.456;-4.456;2023-05-10T01:49:52;5.00;;;2.00;;
74177;SDS011;62540;48.456;-4.456;2023-05-10T01:52:21;3.00;;;2.00;;
74177;SDS011;62540;48.456;-4.456;2023-05-10T01:55:13;6.50;;;2.00;;
74177;SDS011;62540;48.456;-4.456;2023-05-10T01:57:42;3.50;;;1.50;;
74177;SDS011;62540;48.456;-4.456;2023-05-10T02:00:09;5.75;;;3.00;;
74177;SDS011;62540;48.456;-4.456;2023-05-10T02:02:37;4.75;;;3.00;;
74177;SDS011;62540;48.456;-4.456;2023-05-10T02:05:05;6.50;;;3.00;;
74177;SDS011;62540;48.456;-4.456;2023-05-10T02:07:31;2.75;;;2.25;;
74177;SDS011;62540;48.456;-4.456;2023-05-10T02:10:00;3.25;;;2.00;;
74177;SDS011;62540;48.456;-4.456;2023-05-10T02:12:28;3.00;;;2.00;;
74177;SDS011;62540;48.456;-4.456;2023-05-10T02:14:54;4.25;;;1.25;;
74177;SDS011;62540;48.456;-4.456;2023-05-10T02:17:20;3.75;;;2.00;;
74177;SDS011;62540;48.456;-4.456;2023-05-10T02:19:46;4.00;;;2.50;;
74177;SDS011;62540;48.456;-4.456;2023-05-10T02:22:12;2.75;;;1.00;;
74177;SDS011;62540;48.456;-4.456;2023-05-10T02:24:40;5.00;;;2.00;;
74177;SDS011;62540;48.456;-4.456;2023-05-10T02:27:06;4.00;;;2.75;;
74177;SDS011;62540;48.456;-4.456;2023-05-10T02:29:34;2.00;;;2.00;;
74177;SDS011;62540;48.456;-4.456;2023-05-10T02:32:01;6.00;;;2.00;;
74177;SDS011;62540;48.456;-4.456;2023-05-10T02:34:28;3.00;;;1.00;;
74177;SDS011;62540;48.456;-4.456;2023-05-10T02:36:55;2.25;;;1.75;;
74177;SDS011;62540;48.456;-4.456;2023-05-10T02:39:22;4.50;;;2.75;;
74177;SDS011;62540;48.456;-4.456;2023-05-10T02:41:49;1.00;;;1.00;;
74177;SDS011;62540;48.456;-4.456;2023-05-10T02:44:17;3.50;;;2.00;;
74177;SDS011;62540;48.456;-4.456;2023-05-10T02:46:44;6.25;;;3.00;;
74177;SDS011;62540;48.456;-4.456;2023-05-10T02:49:10;2.00;;;2.00;;
74177;SDS011;62540;48.456;-4.456;2023-05-10T02:51:37;3.00;;;2.00;;
74177;SDS011;62540;48.456;-4.456;2023-05-10T02:54:08;3.00;;;2.25;;
74177;SDS011;62540;48.456;-4.456;2023-05-10T02:56:40;2.00;;;1.00;;
74177;SDS011;62540;48.456;-4.456;2023-05-10T02:59:12;3.75;;;2.00;;
74177;SDS011;62540;48.456;-4.456;2023-05-10T03:01:37;3.00;;;2.00;;
74177;SDS011;62540;48.456;-4.456;2023-05-10T03:04:03;6.00;;;2.25;;
74177;SDS011;62540;48.456;-4.456;2023-05-10T03:06:28;2.50;;;2.00;;
74177;SDS011;62540;48.456;-4.456;2023-05-10T03:08:54;5.00;;;3.00;;
74177;SDS011;62540;48.456;-4.456;2023-05-10T03:11:32;4.00;;;2.75;;
74177;SDS011;62540;48.456;-4.456;2023-05-10T03:17:19;2.50;;;2.00;;
74177;SDS011;62540;48.456;-4.456;2023-05-10T03:22:28;6.00;;;1.50;;
74177;SDS011;62540;48.456;-4.456;2023-05-10T03:24:57;4.00;;;2.00;;
74177;SDS011;62540;48.456;-4.456;2023-05-10T03:27:23;2.50;;;1.50;;
74177;SDS011;62540;48.456;-4.456;2023-05-10T03:29:52;4.25;;;2.00;;
74177;SDS011;62540;48.456;-4.456;2023-05-10T03:32:18;5.25;;;2.25;;
74177;SDS011;62540;48.456;-4.456;2023-05-10T03:34:44;4.75;;;2.75;;
74177;SDS011;62540;48.456;-4.456;2023-05-10T03:37:09;3.75;;;2.25;;
74177;SDS011;62540;48.456;-4.456;2023-05-10T03:39:35;6.00;;;2.00;;
74177;SDS011;62540;48.456;-4.456;2023-05-10T03:42:00;2.50;;;2.00;;
74177;SDS011;62540;48.456;-4.456;2023-05-10T03:44:26;3.25;;;2.25;;
74177;SDS011;62540;48.456;-4.456;2023-05-10T03:46:51;3.75;;;1.75;;
74177;SDS011;62540;48.456;-4.456;2023-05-10T03:49:16;3.50;;;2.75;;
74177;SDS011;62540;48.456;-4.456;2023-05-10T03:51:42;5.25;;;3.00;;
74177;SDS011;62540;48.456;-4.456;2023-05-10T03:54:07;5.00;;;2.00;;
74177;SDS011;62540;48.456;-4.456;2023-05-10T03:56:32;4.00;;;2.50;;
74177;SDS011;62540;48.456;-4.456;2023-05-10T03:58:58;2.00;;;2.00;;
74177;SDS011;62540;48.456;-4.456;2023-05-10T04:01:23;4.75;;;3.50;;
74177;SDS011;62540;48.456;-4.456;2023-05-10T04:03:49;4.00;;;3.00;;
74177;SDS011;62540;48.456;-4.456;2023-05-10T04:06:14;4.50;;;3.00;;
74177;SDS011;62540;48.456;-4.456;2023-05-10T04:08:39;3.00;;;2.50;;
74177;SDS011;62540;48.456;-4.456;2023-05-10T04:11:08;4.25;;;2.00;;
74177;SDS011;62540;48.456;-4.456;2023-05-10T04:13:35;7.00;;;5.00;;
74177;SDS011;62540;48.456;-4.456;2023-05-10T04:16:01;4.50;;;2.75;;
74177;SDS011;62540;48.456;-4.456;2023-05-10T04:18:27;4.00;;;3.25;;
74177;SDS011;62540;48.456;-4.456;2023-05-10T04:20:52;4.25;;;2.00;;
74177;SDS011;62540;48.456;-4.456;2023-05-10T04:23:18;4.75;;;2.00;;
74177;SDS011;62540;48.456;-4.456;2023-05-10T04:25:43;6.50;;;4.50;;
74177;SDS011;62540;48.456;-4.456;2023-05-10T04:28:08;2.00;;;2.00;;
74177;SDS011;62540;48.456;-4.456;2023-05-10T04:30:34;2.50;;;1.00;;
74177;SDS011;62540;48.456;-4.456;2023-05-10T04:33:00;5.50;;;2.00;;
74177;SDS011;62540;48.456;-4.456;2023-05-10T04:35:26;3.75;;;2.25;;
74177;SDS011;62540;48.456;-4.456;2023-05-10T04:37:53;3.00;;;3.00;;
74177;SDS011;62540;48.456;-4.456;2023-05-10T04:40:18;3.50;;;2.50;;
74177;SDS011;62540;48.456;-4.456;2023-05-10T04:42:44;3.00;;;2.00;;
74177;SDS011;62540;48.456;-4.456;2023-05-10T04:45:10;4.00;;;2.75;;
74177;SDS011;62540;48.456;-4.456;2023-05-10T04:47:35;2.00;;;2.00;;
74177;SDS011;62540;48.456;-4.456;2023-05-10T04:50:02;4.75;;;2.75;;
74177;SDS011;62540;48.456;-4.456;2023-05-10T04:52:28;2.50;;;2.00;;
74177;SDS011;62540;48.456;-4.456;2023-05-10T04:54:53;4.50;;;1.00;;
74177;SDS011;62540;48.456;-4.456;2023-05-10T04:57:19;4.25;;;2.00;;
74177;SDS011;62540;48.456;-4.456;2023-05-10T04:59:44;1.75;;;1.00;;
74177;SDS011;62540;48.456;-4.456;2023-05-10T05:02:10;3.00;;;2.00;;
74177;SDS011;62540;48.456;-4.456;2023-05-10T05:04:35;1.00;;;1.00;;
74177;SDS011;62540;48.456;-4.456;2023-05-10T05:07:01;4.50;;;2.00;;
74177;SDS011;62540;48.456;-4.456;2023-05-10T05:09:26;2.25;;;1.75;;
74177;SDS011;62540;48.456;-4.456;2023-05-10T05:11:52;3.00;;;1.00;;
74177;SDS011;62540;48.456;-4.456;2023-05-10T05:14:17;1.25;;;1.00;;
74177;SDS011;62540;48.456;-4.456;2023-05-10T05:16:42;2.75;;;2.00;;
74177;SDS011;62540;48.456;-4.456;2023-05-10T05:19:08;3.00;;;1.00;;
74177;SDS011;62540;48.456;-4.456;2023-05-10T05:21:33;0.75;;;0.75;;
74177;SDS011;62540;48.456;-4.456;2023-05-10T05:23:59;1.25;;;1.00;;
74177;SDS011;62540;48.456;-4.456;2023-05-10T05:26:24;2.00;;;1.00;;
74177;SDS011;62540;48.456;-4.456;2023-05-10T05:28:51;1.00;;;0.50;;
74177;SDS011;62540;48.456;-4.456;2023-05-10T05:31:19;2.50;;;1.25;;
74177;SDS011;62540;48.456;-4.456;2023-05-10T05:33:45;1.00;;;1.00;;
74177;SDS011;62540;48.456;-4.456;2023-05-10T05:36:10;1.00;;;0.50;;
74177;SDS011;62540;48.456;-4.456;2023-05-10T05:38:36;1.00;;;1.00;;
74177;SDS011;62540;48.456;-4.456;2023-05-10T05:41:01;3.00;;;1.00;;
74177;SDS011;62540;48.456;-4.456;2023-05-10T05:43:27;3.50;;;2.00;;
74177;SDS011;62540;48.456;-4.456;2023-05-10T05:45:53;2.00;;;1.00;;
74177;SDS011;62540;48.456;-4.456;2023-05-10T05:48:19;1.50;;;1.00;;
74177;SDS011;62540;48.456;-4.456;2023-05-10T05:50:45;1.00;;;1.00;;
74177;SDS011;62540;48.456;-4.456;2023-05-10T05:53:10;4.25;;;2.25;;
74177;SDS011;62540;48.456;-4.456;2023-05-10T05:55:36;4.00;;;2.00;;
74177;SDS011;62540;48.456;-4.456;2023-05-10T05:58:01;3.00;;;2.25;;
74177;SDS011;62540;48.456;-4.456;2023-05-10T06:00:27;2.00;;;1.00;;
74177;SDS011;62540;48.456;-4.456;2023-05-10T06:02:52;4.00;;;1.00;;
74177;SDS011;62540;48.456;-4.456;2023-05-10T06:05:18;0.50;;;0.50;;
74177;SDS011;62540;48.456;-4.456;2023-05-10T06:07:43;4.75;;;1.75;;
74177;SDS011;62540;48.456;-4.456;2023-05-10T06:10:08;2.00;;;1.25;;
74177;SDS011;62540;48.456;-4.456;2023-05-10T06:12:34;1.25;;;1.00;;
74177;SDS011;62540;48.456;-4.456;2023-05-10T06:15:00;3.75;;;2.00;;
74177;SDS011;62540;48.456;-4.456;2023-05-10T06:17:25;2.00;;;1.75;;
74177;SDS011;62540;48.456;-4.456;2023-05-10T06:19:51;2.50;;;1.50;;
74177;SDS011;62540;48.456;-4.456;2023-05-10T06:22:16;2.00;;;2.00;;
74177;SDS011;62540;48.456;-4.456;2023-05-10T06:24:42;2.00;;;1.00;;
74177;SDS011;62540;48.456;-4.456;2023-05-10T06:27:08;2.25;;;1.50;;
74177;SDS011;62540;48.456;-4.456;2023-05-10T06:29:34;2.00;;;1.00;;
74177;SDS011;62540;48.456;-4.456;2023-05-10T06:31:59;2.00;;;1.00;;
74177;SDS011;62540;48.456;-4.456;2023-05-10T06:34:24;2.25;;;2.00;;
74177;SDS011;62540;48.456;-4.456;2023-05-10T06:36:50;3.00;;;1.00;;
74177;SDS011;62540;48.456;-4.456;2023-05-10T06:39:16;1.75;;;0.75;;
74177;SDS011;62540;48.456;-4.456;2023-05-10T06:41:42;0.75;;;0.50;;
74177;SDS011;62540;48.456;-4.456;2023-05-10T06:44:07;1.00;;;0.00;;
74177;SDS011;62540;48.456;-4.456;2023-05-10T06:46:33;0.50;;;0.25;;
74177;SDS011;62540;48.456;-4.456;2023-05-10T06:48:58;3.00;;;0.75;;
74177;SDS011;62540;48.456;-4.456;2023-05-10T06:51:24;0.00;;;0.00;;
74177;SDS011;62540;48.456;-4.456;2023-05-10T06:53:49;1.00;;;0.00;;
74177;SDS011;62540;48.456;-4.456;2023-05-10T06:56:15;1.00;;;0.00;;
74177;SDS011;62540;48.456;-4.456;2023-05-10T06:58:40;1.00;;;0.00;;
74177;SDS011;62540;48.456;-4.456;2023-05-10T07:01:06;1.00;;;0.00;;
74177;SDS011;62540;48.456;-4.456;2023-05-10T07:03:31;0.00;;;0.00;;
74177;SDS011;62540;48.456;-4.456;2023-05-10T07:06:00;1.25;;;1.00;;
74177;SDS011;62540;48.456;-4.456;2023-05-10T07:08:32;1.00;;;0.25;;
74177;SDS011;62540;48.456;-4.456;2023-05-10T07:11:04;1.00;;;1.00;;
74177;SDS011;62540;48.456;-4.456;2023-05-10T07:13:32;1.00;;;0.00;;
74177;SDS011;62540;48.456;-4.456;2023-05-10T07:15:59;0.75;;;0.25;;
74177;SDS011;62540;48.456;-4.456;2023-05-10T07:18:25;0.75;;;0.00;;
74177;SDS011;62540;48.456;-4.456;2023-05-10T07:20:51;0.00;;;0.00;;
74177;SDS011;62540;48.456;-4.456;2023-05-10T07:23:16;2.00;;;1.00;;
74177;SDS011;62540;48.456;-4.456;2023-05-10T07:25:46;1.00;;;1.00;;
74177;SDS011;62540;48.456;-4.456;2023-05-10T07:28:16;1.50;;;1.00;;
74177;SDS011;62540;48.456;-4.456;2023-05-10T07:30:42;2.00;;;1.00;;
74177;SDS011;62540;48.456;-4.456;2023-05-10T07:33:08;4.00;;;1.75;;
74177;SDS011;62540;48.456;-4.456;2023-05-10T07:35:35;1.00;;;1.00;;
74177;SDS011;62540;48.456;-4.456;2023-05-10T07:38:00;0.50;;;0.00;;
74177;SDS011;62540;48.456;-4.456;2023-05-10T07:40:26;0.25;;;0.25;;
74177;SDS011;62540;48.456;-4.456;2023-05-10T07:42:52;2.00;;;0.50;;
74177;SDS011;62540;48.456;-4.456;2023-05-10T07:45:18;0.75;;;0.25;;
74177;SDS011;62540;48.456;-4.456;2023-05-10T07:47:43;2.00;;;0.50;;
74177;SDS011;62540;48.456;-4.456;2023-05-10T07:50:09;3.00;;;1.00;;
74177;SDS011;62540;48.456;-4.456;2023-05-10T07:52:34;0.50;;;0.00;;
74177;SDS011;62540;48.456;-4.456;2023-05-10T07:54:59;0.00;;;0.00;;
74177;SDS011;62540;48.456;-4.456;2023-05-10T07:57:25;0.50;;;0.00;;
74177;SDS011;62540;48.456;-4.456;2023-05-10T07:59:50;0.00;;;0.00;;
74177;SDS011;62540;48.456;-4.456;2023-05-10T08:02:16;0.00;;;0.00;;
74177;SDS011;62540;48.456;-4.456;2023-05-10T08:04:41;0.75;;;0.00;;
74177;SDS011;62540;48.456;-4.456;2023-05-10T08:07:07;1.00;;;1.00;;
74177;SDS011;62540;48.456;-4.456;2023-05-10T08:09:32;0.00;;;0.00;;
74177;SDS011;62540;48.456;-4.456;2023-05-10T08:11:58;0.00;;;0.00;;
74177;SDS011;62540;48.456;-4.456;2023-05-10T08:14:25;1.00;;;0.00;;
74177;SDS011;62540;48.456;-4.456;2023-05-10T08:16:50;0.00;;;0.00;;
74177;SDS011;62540;48.456;-4.456;2023-05-10T08:19:16;0.50;;;0.50;;
74177;SDS011;62540;48.456;-4.456;2023-05-10T08:21:45;1.00;;;0.50;;
74177;SDS011;62540;48.456;-4.456;2023-05-10T08:24:10;1.00;;;1.00;;
74177;SDS011;62540;48.456;-4.456;2023-05-10T08:26:36;0.25;;;0.00;;
74177;SDS011;62540;48.456;-4.456;2023-05-10T08:29:01;1.75;;;0.00;;
74177;SDS011;62540;48.456;-4.456;2023-05-10T08:31:27;0.75;;;0.00;;
74177;SDS011;62540;48.456;-4.456;2023-05-10T08:33:52;0.00;;;0.00;;
74177;SDS011;62540;48.456;-4.456;2023-05-10T08:36:18;1.50;;;0.00;;
74177;SDS011;62540;48.456;-4.456;2023-05-10T08:38:46;2.00;;;0.00;;
74177;SDS011;62540;48.456;-4.456;2023-05-10T08:41:14;0.25;;;0.00;;
74177;SDS011;62540;48.456;-4.456;2023-05-10T08:43:40;0.00;;;0.00;;
74177;SDS011;62540;48.456;-4.456;2023-05-10T08:46:11;0.00;;;0.00;;
74177;SDS011;62540;48.456;-4.456;2023-05-10T08:48:42;0.50;;;0.00;;
74177;SDS011;62540;48.456;-4.456;2023-05-10T08:51:09;1.00;;;0.00;;
74177;SDS011;62540;48.456;-4.456;2023-05-10T08:53:37;1.00;;;0.25;;
74177;SDS011;62540;48.456;-4.456;2023-05-10T08:56:03;0.00;;;0.00;;
74177;SDS011;62540;48.456;-4.456;2023-05-10T08:58:29;0.75;;;0.00;;
74177;SDS011;62540;48.456;-4.456;2023-05-10T09:00:55;0.25;;;0.00;;
74177;SDS011;62540;48.456;-4.456;2023-05-10T09:03:22;1.00;;;0.00;;
74177;SDS011;62540;48.456;-4.456;2023-05-10T09:05:48;0.50;;;0.00;;
74177;SDS011;62540;48.456;-4.456;2023-05-10T09:08:14;1.00;;;0.50;;
74177;SDS011;62540;48.456;-4.456;2023-05-10T09:10:41;2.75;;;0.50;;
74177;SDS011;62540;48.456;-4.456;2023-05-10T09:13:08;0.00;;;0.00;;
74177;SDS011;62540;48.456;-4.456;2023-05-10T09:15:36;2.00;;;1.00;;
74177;SDS011;62540;48.456;-4.456;2023-05-10T09:18:01;3.00;;;0.00;;
74177;SDS011;62540;48.456;-4.456;2023-05-10T09:20:27;1.25;;;0.25;;
74177;SDS011;62540;48.456;-4.456;2023-05-10T09:22:53;0.50;;;0.00;;
74177;SDS011;62540;48.456;-4.456;2023-05-10T09:25:18;0.25;;;0.00;;
74177;SDS011;62540;48.456;-4.456;2023-05-10T09:27:44;1.25;;;0.00;;
74177;SDS011;62540;48.456;-4.456;2023-05-10T09:30:45;1.50;;;0.75;;
74177;SDS011;62540;48.456;-4.456;2023-05-10T09:33:03;1.00;;;0.50;;
74177;SDS011;62540;48.456;-4.456;2023-05-10T09:35:32;0.00;;;0.00;;
74177;SDS011;62540;48.456;-4.456;2023-05-10T09:38:04;1.00;;;0.00;;
74177;SDS011;62540;48.456;-4.456;2023-05-10T09:40:30;0.00;;;0.00;;
74177;SDS011;62540;48.456;-4.456;2023-05-10T09:43:03;0.25;;;0.00;;
74177;SDS011;62540;48.456;-4.456;2023-05-10T09:45:33;1.00;;;1.00;;
74177;SDS011;62540;48.456;-4.456;2023-05-10T09:48:00;0.00;;;0.00;;
74177;SDS011;62540;48.456;-4.456;2023-05-10T09:50:27;2.50;;;0.50;;
74177;SDS011;62540;48.456;-4.456;2023-05-10T09:52:54;1.00;;;0.00;;
74177;SDS011;62540;48.456;-4.456;2023-05-10T09:55:25;0.00;;;0.00;;
74177;SDS011;62540;48.456;-4.456;2023-05-10T09:58:03;0.25;;;0.00;;
74177;SDS011;62540;48.456;-4.456;2023-05-10T10:00:35;1.25;;;0.00;;
74177;SDS011;62540;48.456;-4.456;2023-05-10T10:03:02;0.25;;;0.25;;
74177;SDS011;62540;48.456;-4.456;2023-05-10T10:05:29;1.75;;;0.75;;
74177;SDS011;62540;48.456;-4.456;2023-05-10T10:07:55;1.00;;;0.00;;
74177;SDS011;62540;48.456;-4.456;2023-05-10T10:10:22;1.75;;;0.00;;
74177;SDS011;62540;48.456;-4.456;2023-05-10T10:12:49;0.25;;;0.00;;
74177;SDS011;62540;48.456;-4.456;2023-05-10T10:15:15;1.00;;;0.00;;
74177;SDS011;62540;48.456;-4.456;2023-05-10T10:17:41;1.00;;;1.00;;
74177;SDS011;62540;48.456;-4.456;2023-05-10T10:20:08;1.75;;;1.00;;
74177;SDS011;62540;48.456;-4.456;2023-05-10T10:22:34;0.75;;;0.00;;
74177;SDS011;62540;48.456;-4.456;2023-05-10T10:25:01;0.00;;;0.00;;
74177;SDS011;62540;48.456;-4.456;2023-05-10T10:33:10;0.00;;;0.00;;
74177;SDS011;62540;48.456;-4.456;2023-05-10T10:35:49;0.00;;;0.00;;
74177;SDS011;62540;48.456;-4.456;2023-05-10T10:38:17;0.00;;;0.00;;
74177;SDS011;62540;48.456;-4.456;2023-05-10T10:40:42;0.50;;;0.50;;
74177;SDS011;62540;48.456;-4.456;2023-05-10T10:43:20;0.00;;;0.00;;
74177;SDS011;62540;48.456;-4.456;2023-05-10T10:48:36;0.00;;;0.00;;
74177;SDS011;62540;48.456;-4.456;2023-05-10T10:51:01;2.75;;;0.00;;
74177;SDS011;62540;48.456;-4.456;2023-05-10T10:53:28;1.00;;;0.00;;
74177;SDS011;62540;48.456;-4.456;2023-05-10T10:56:07;0.25;;;0.00;;
74177;SDS011;62540;48.456;-4.456;2023-05-10T10:58:35;0.00;;;0.00;;
74177;SDS011;62540;48.456;-4.456;2023-05-10T11:01:08;1.50;;;0.00;;
74177;SDS011;62540;48.456;-4.456;2023-05-10T11:06:30;0.50;;;0.00;;
74177;SDS011;62540;48.456;-4.456;2023-05-10T11:09:08;1.00;;;0.00;;
74177;SDS011;62540;48.456;-4.456;2023-05-10T11:11:36;2.00;;;1.00;;
74177;SDS011;62540;48.456;-4.456;2023-05-10T11:14:13;1.25;;;0.00;;
74177;SDS011;62540;48.456;-4.456;2023-05-10T11:16:42;0.00;;;0.00;;
74177;SDS011;62540;48.456;-4.456;2023-05-10T11:19:10;0.50;;;0.25;;
74177;SDS011;62540;48.456;-4.456;2023-05-10T11:21:47;0.00;;;0.00;;
74177;SDS011;62540;48.456;-4.456;2023-05-10T11:24:18;0.00;;;0.00;;
74177;SDS011;62540;48.456;-4.456;2023-05-10T11:26:45;0.00;;;0.00;;
74177;SDS011;62540;48.456;-4.456;2023-05-10T11:29:14;0.00;;;0.00;;
74177;SDS011;62540;48.456;-4.456;2023-05-10T11:31:46;0.00;;;0.00;;
74177;SDS011;62540;48.456;-4.456;2023-05-10T11:34:33;0.00;;;0.00;;
74177;SDS011;62540;48.456;-4.456;2023-05-10T11:36:59;4.50;;;0.00;;
74177;SDS011;62540;48.456;-4.456;2023-05-10T11:39:28;0.75;;;0.00;;
74177;SDS011;62540;48.456;-4.456;2023-05-10T11:41:54;1.00;;;0.00;;
74177;SDS011;62540;48.456;-4.456;2023-05-10T11:44:20;0.25;;;0.00;;
74177;SDS011;62540;48.456;-4.456;2023-05-10T11:46:46;1.50;;;0.00;;
74177;SDS011;62540;48.456;-4.456;2023-05-10T11:49:11;1.00;;;0.00;;
74177;SDS011;62540;48.456;-4.456;2023-05-10T11:51:38;0.00;;;0.00;;
74177;SDS011;62540;48.456;-4.456;2023-05-10T11:54:07;0.00;;;0.00;;
74177;SDS011;62540;48.456;-4.456;2023-05-10T11:56:34;0.50;;;0.00;;
74177;SDS011;62540;48.456;-4.456;2023-05-10T11:59:01;1.00;;;0.00;;
74177;SDS011;62540;48.456;-4.456;2023-05-10T12:01:27;2.00;;;1.00;;
74177;SDS011;62540;48.456;-4.456;2023-05-10T12:03:55;0.00;;;0.00;;
74177;SDS011;62540;48.456;-4.456;2023-05-10T12:06:28;0.00;;;0.00;;
74177;SDS011;62540;48.456;-4.456;2023-05-10T12:08:56;2.00;;;0.00;;
74177;SDS011;62540;48.456;-4.456;2023-05-10T12:11:24;0.50;;;0.00;;
74177;SDS011;62540;48.456;-4.456;2023-05-10T12:13:50;0.75;;;0.00;;
74177;SDS011;62540;48.456;-4.456;2023-05-10T12:16:17;0.00;;;0.00;;
74177;SDS011;62540;48.456;-4.456;2023-05-10T12:18:50;0.00;;;0.00;;
74177;SDS011;62540;48.456;-4.456;2023-05-10T12:21:17;0.75;;;0.75;;
74177;SDS011;62540;48.456;-4.456;2023-05-10T12:23:45;2.25;;;1.00;;
74177;SDS011;62540;48.456;-4.456;2023-05-10T12:26:11;0.75;;;0.00;;
74177;SDS011;62540;48.456;-4.456;2023-05-10T12:28:37;0.00;;;0.00;;
74177;SDS011;62540;48.456;-4.456;2023-05-10T12:31:05;0.00;;;0.00;;
74177;SDS011;62540;48.456;-4.456;2023-05-10T12:33:41;0.00;;;0.00;;
74177;SDS011;62540;48.456;-4.456;2023-05-10T12:36:08;0.00;;;0.00;;
74177;SDS011;62540;48.456;-4.456;2023-05-10T12:38:38;0.75;;;0.00;;
74177;SDS011;62540;48.456;-4.456;2023-05-10T12:41:11;0.00;;;0.00;;
74177;SDS011;62540;48.456;-4.456;2023-05-10T12:43:38;0.25;;;0.00;;
74177;SDS011;62540;48.456;-4.456;2023-05-10T12:46:05;1.00;;;0.00;;
74177;SDS011;62540;48.456;-4.456;2023-05-10T12:48:35;1.00;;;0.00;;
74177;SDS011;62540;48.456;-4.456;2023-05-10T12:51:01;0.00;;;0.00;;
74177;SDS011;62540;48.456;-4.456;2023-05-10T12:53:27;2.00;;;0.00;;
74177;SDS011;62540;48.456;-4.456;2023-05-10T12:55:52;0.75;;;0.00;;
74177;SDS011;62540;48.456;-4.456;2023-05-10T12:58:18;0.50;;;0.00;;
74177;SDS011;62540;48.456;-4.456;2023-05-10T13:00:44;0.50;;;0.00;;
74177;SDS011;62540;48.456;-4.456;2023-05-10T13:03:09;0.50;;;0.00;;
74177;SDS011;62540;48.456;-4.456;2023-05-10T13:05:35;0.00;;;0.00;;
74177;SDS011;62540;48.456;-4.456;2023-05-10T13:08:01;1.75;;;0.00;;
74177;SDS011;62540;48.456;-4.456;2023-05-10T13:10:28;0.75;;;0.00;;
74177;SDS011;62540;48.456;-4.456;2023-05-10T13:12:55;0.00;;;0.00;;
74177;SDS011;62540;48.456;-4.456;2023-05-10T13:15:20;0.00;;;0.00;;
74177;SDS011;62540;48.456;-4.456;2023-05-10T13:17:46;0.00;;;0.00;;
74177;SDS011;62540;48.456;-4.456;2023-05-10T13:20:11;0.75;;;0.00;;
74177;SDS011;62540;48.456;-4.456;2023-05-10T13:22:37;1.00;;;0.00;;
74177;SDS011;62540;48.456;-4.456;2023-05-10T13:25:02;1.00;;;0.00;;
74177;SDS011;62540;48.456;-4.456;2023-05-10T13:27:28;0.00;;;0.00;;
74177;SDS011;62540;48.456;-4.456;2023-05-10T13:29:53;0.00;;;0.00;;
74177;SDS011;62540;48.456;-4.456;2023-05-10T13:32:19;0.00;;;0.00;;
74177;SDS011;62540;48.456;-4.456;2023-05-10T13:34:45;0.00;;;0.00;;
74177;SDS011;62540;48.456;-4.456;2023-05-10T13:37:11;0.25;;;0.00;;
74177;SDS011;62540;48.456;-4.456;2023-05-10T13:39:36;1.00;;;1.00;;
74177;SDS011;62540;48.456;-4.456;2023-05-10T13:42:02;0.00;;;0.00;;
74177;SDS011;62540;48.456;-4.456;2023-05-10T13:44:28;0.75;;;0.00;;
74177;SDS011;62540;48.456;-4.456;2023-05-10T13:46:54;0.00;;;0.00;;
74177;SDS011;62540;48.456;-4.456;2023-05-10T13:49:20;1.00;;;0.00;;
74177;SDS011;62540;48.456;-4.456;2023-05-10T13:51:46;0.00;;;0.00;;
74177;SDS011;62540;48.456;-4.456;2023-05-10T13:54:12;0.00;;;0.00;;
74177;SDS011;62540;48.456;-4.456;2023-05-10T13:56:37;0.00;;;0.00;;
74177;SDS011;62540;48.456;-4.456;2023-05-10T13:59:03;0.00;;;0.00;;
74177;SDS011;62540;48.456;-4.456;2023-05-10T14:01:28;0.00;;;0.00;;
74177;SDS011;62540;48.456;-4.456;2023-05-10T14:03:54;0.00;;;0.00;;
74177;SDS011;62540;48.456;-4.456;2023-05-10T14:06:19;0.00;;;0.00;;
74177;SDS011;62540;48.456;-4.456;2023-05-10T14:08:45;0.00;;;0.00;;
74177;SDS011;62540;48.456;-4.456;2023-05-10T14:11:10;1.00;;;0.00;;
74177;SDS011;62540;48.456;-4.456;2023-05-10T14:13:36;0.00;;;0.00;;
74177;SDS011;62540;48.456;-4.456;2023-05-10T14:16:01;0.00;;;0.00;;
74177;SDS011;62540;48.456;-4.456;2023-05-10T14:18:27;1.00;;;0.00;;
74177;SDS011;62540;48.456;-4.456;2023-05-10T14:20:53;0.00;;;0.00;;
74177;SDS011;62540;48.456;-4.456;2023-05-10T14:23:18;0.00;;;0.00;;
74177;SDS011;62540;48.456;-4.456;2023-05-10T14:25:49;0.25;;;0.00;;
74177;SDS011;62540;48.456;-4.456;2023-05-10T14:28:17;0.00;;;0.00;;
74177;SDS011;62540;48.456;-4.456;2023-05-10T14:30:43;0.00;;;0.00;;
74177;SDS011;62540;48.456;-4.456;2023-05-10T14:33:09;1.00;;;0.00;;
74177;SDS011;62540;48.456;-4.456;2023-05-10T14:35:35;0.00;;;0.00;;
74177;SDS011;62540;48.456;-4.456;2023-05-10T14:38:01;0.75;;;0.00;;
74177;SDS011;62540;48.456;-4.456;2023-05-10T14:40:27;0.00;;;0.00;;
74177;SDS011;62540;48.456;-4.456;2023-05-10T14:42:53;0.00;;;0.00;;
74177;SDS011;62540;48.456;-4.456;2023-05-10T14:45:19;0.00;;;0.00;;
74177;SDS011;62540;48.456;-4.456;2023-05-10T14:47:45;0.25;;;0.00;;
74177;SDS011;62540;48.456;-4.456;2023-05-10T14:50:10;0.00;;;0.00;;
74177;SDS011;62540;48.456;-4.456;2023-05-10T14:52:36;0.00;;;0.00;;
74177;SDS011;62540;48.456;-4.456;2023-05-10T14:55:01;1.50;;;0.00;;
74177;SDS011;62540;48.456;-4.456;2023-05-10T14:57:27;0.00;;;0.00;;
74177;SDS011;62540;48.456;-4.456;2023-05-10T14:59:54;0.50;;;0.00;;
74177;SDS011;62540;48.456;-4.456;2023-05-10T15:02:20;0.00;;;0.00;;